sensor_id;sensor_type;location;lat;lon;timestamp;P1;durP1;ratioP1;P2;durP2;ratioP2
74158;SDS011;62511;47.970;11.774;2023-04-21T00:01:24;8.68;;;4.75;;
74158;SDS011;62511;47.970;11.774;2023-04-21T00:03:53;9.60;;;5.60;;
74158;SDS011;62511;47.970;11.774;2023-04-21T00:06:19;10.63;;;5.78;;
74158;SDS011;62511;47.970;11.774;2023-04-21T00:08:47;10.15;;;5.43;;
74158;SDS011;62511;47.970;11.774;2023-04-21T00:11:13;9.15;;;5.47;;
74158;SDS011;62511;47.970;11.774;2023-04-21T00:13:39;9.20;;;5.03;;
74158;SDS011;62511;47.970;11.774;2023-04-21T00:16:06;10.48;;;5.05;;
74158;SDS011;62511;47.970;11.774;2023-04-21T00:18:32;9.38;;;4.57;;
74158;SDS011;62511;47.970;11.774;2023-04-21T00:21:00;9.82;;;5.53;;
74158;SDS011;62511;47.970;11.774;2023-04-21T00:23:26;9.40;;;5.35;;
74158;SDS011;62511;47.970;11.774;2023-04-21T00:25:52;10.10;;;5.05;;
74158;SDS011;62511;47.970;11.774;2023-04-21T00:28:18;8.77;;;4.57;;
74158;SDS011;62511;47.970;11.774;2023-04-21T00:30:44;10.88;;;5.40;;
74158;SDS011;62511;47.970;11.774;2023-04-21T00:33:10;10.13;;;5.63;;
74158;SDS011;62511;47.970;11.774;2023-04-21T00:35:36;15.07;;;6.43;;
74158;SDS011;62511;47.970;11.774;2023-04-21T00:38:02;13.93;;;7.10;;
74158;SDS011;62511;47.970;11.774;2023-04-21T00:40:28;13.85;;;6.93;;
74158;SDS011;62511;47.970;11.774;2023-04-21T00:42:54;11.07;;;6.10;;
74158;SDS011;62511;47.970;11.774;2023-04-21T00:45:20;10.75;;;6.28;;
74158;SDS011;62511;47.970;11.774;2023-04-21T00:47:46;12.02;;;6.32;;
74158;SDS011;62511;47.970;11.774;2023-04-21T00:50:12;13.88;;;6.43;;
74158;SDS011;62511;47.970;11.774;2023-04-21T00:52:39;13.32;;;6.43;;
74158;SDS011;62511;47.970;11.774;2023-04-21T00:55:06;14.73;;;6.57;;
74158;SDS011;62511;47.970;11.774;2023-04-21T00:57:32;12.25;;;5.80;;
74158;SDS011;62511;47.970;11.774;2023-04-21T00:59:59;12.43;;;5.82;;
74158;SDS011;62511;47.970;11.774;2023-04-21T01:02:25;12.77;;;5.63;;
74158;SDS011;62511;47.970;11.774;2023-04-21T01:04:52;11.85;;;6.65;;
74158;SDS011;62511;47.970;11.774;2023-04-21T01:07:18;11.82;;;6.10;;
74158;SDS011;62511;47.970;11.774;2023-04-21T01:09:44;11.30;;;5.97;;
74158;SDS011;62511;47.970;11.774;2023-04-21T01:12:10;10.60;;;5.57;;
74158;SDS011;62511;47.970;11.774;2023-04-21T01:14:38;11.32;;;5.93;;
74158;SDS011;62511;47.970;11.774;2023-04-21T01:17:04;13.95;;;6.38;;
74158;SDS011;62511;47.970;11.774;2023-04-21T01:19:33;13.90;;;6.50;;
74158;SDS011;62511;47.970;11.774;2023-04-21T01:22:00;14.52;;;6.30;;
74158;SDS011;62511;47.970;11.774;2023-04-21T01:26:53;8.75;;;4.72;;
74158;SDS011;62511;47.970;11.774;2023-04-21T01:29:19;10.43;;;5.18;;
74158;SDS011;62511;47.970;11.774;2023-04-21T01:31:45;13.93;;;6.55;;
74158;SDS011;62511;47.970;11.774;2023-04-21T01:34:12;10.52;;;6.32;;
74158;SDS011;62511;47.970;11.774;2023-04-21T01:36:38;12.18;;;5.68;;
74158;SDS011;62511;47.970;11.774;2023-04-21T01:39:04;12.60;;;6.43;;
74158;SDS011;62511;47.970;11.774;2023-04-21T01:41:30;10.75;;;5.78;;
74158;SDS011;62511;47.970;11.774;2023-04-21T01:43:56;10.80;;;5.47;;
74158;SDS011;62511;47.970;11.774;2023-04-21T01:46:22;12.43;;;6.18;;
74158;SDS011;62511;47.970;11.774;2023-04-21T01:48:48;11.73;;;6.25;;
74158;SDS011;62511;47.970;11.774;2023-04-21T01:51:14;11.48;;;5.32;;
74158;SDS011;62511;47.970;11.774;2023-04-21T01:53:40;10.88;;;4.97;;
74158;SDS011;62511;47.970;11.774;2023-04-21T01:56:06;12.05;;;6.25;;
74158;SDS011;62511;47.970;11.774;2023-04-21T01:58:32;10.27;;;6.10;;
74158;SDS011;62511;47.970;11.774;2023-04-21T02:00:58;10.63;;;5.60;;
74158;SDS011;62511;47.970;11.774;2023-04-21T02:03:24;12.30;;;6.20;;
74158;SDS011;62511;47.970;11.774;2023-04-21T02:05:50;13.15;;;6.28;;
74158;SDS011;62511;47.970;11.774;2023-04-21T02:08:16;10.50;;;6.00;;
74158;SDS011;62511;47.970;11.774;2023-04-21T02:10:42;14.43;;;6.85;;
74158;SDS011;62511;47.970;11.774;2023-04-21T02:13:08;11.57;;;6.65;;
74158;SDS011;62511;47.970;11.774;2023-04-21T02:15:35;11.23;;;5.68;;
74158;SDS011;62511;47.970;11.774;2023-04-21T02:18:01;11.35;;;5.68;;
74158;SDS011;62511;47.970;11.774;2023-04-21T02:20:27;10.32;;;5.43;;
74158;SDS011;62511;47.970;11.774;2023-04-21T02:22:54;8.65;;;5.22;;
74158;SDS011;62511;47.970;11.774;2023-04-21T02:25:20;11.75;;;6.70;;
74158;SDS011;62511;47.970;11.774;2023-04-21T02:27:46;11.80;;;6.20;;
74158;SDS011;62511;47.970;11.774;2023-04-21T02:30:12;10.85;;;5.60;;
74158;SDS011;62511;47.970;11.774;2023-04-21T02:32:38;8.48;;;4.72;;
74158;SDS011;62511;47.970;11.774;2023-04-21T02:35:04;10.15;;;5.40;;
74158;SDS011;62511;47.970;11.774;2023-04-21T02:37:30;11.27;;;5.20;;
74158;SDS011;62511;47.970;11.774;2023-04-21T02:39:56;10.50;;;5.72;;
74158;SDS011;62511;47.970;11.774;2023-04-21T02:42:22;10.63;;;6.60;;
74158;SDS011;62511;47.970;11.774;2023-04-21T02:44:48;9.77;;;5.20;;
74158;SDS011;62511;47.970;11.774;2023-04-21T02:47:15;10.75;;;5.60;;
74158;SDS011;62511;47.970;11.774;2023-04-21T02:49:41;12.15;;;6.70;;
74158;SDS011;62511;47.970;11.774;2023-04-21T02:52:07;13.90;;;6.80;;
74158;SDS011;62511;47.970;11.774;2023-04-21T02:54:34;14.90;;;7.15;;
74158;SDS011;62511;47.970;11.774;2023-04-21T02:57:00;10.02;;;6.53;;
74158;SDS011;62511;47.970;11.774;2023-04-21T02:59:26;11.48;;;6.30;;
74158;SDS011;62511;47.970;11.774;2023-04-21T03:01:52;10.38;;;5.70;;
74158;SDS011;62511;47.970;11.774;2023-04-21T03:04:18;11.70;;;6.68;;
74158;SDS011;62511;47.970;11.774;2023-04-21T03:06:45;12.55;;;5.78;;
74158;SDS011;62511;47.970;11.774;2023-04-21T03:09:11;11.18;;;6.28;;
74158;SDS011;62511;47.970;11.774;2023-04-21T03:11:37;10.50;;;5.90;;
74158;SDS011;62511;47.970;11.774;2023-04-21T03:14:03;12.88;;;5.75;;
74158;SDS011;62511;47.970;11.774;2023-04-21T03:16:29;13.95;;;5.50;;
74158;SDS011;62511;47.970;11.774;2023-04-21T03:18:55;13.05;;;6.25;;
74158;SDS011;62511;47.970;11.774;2023-04-21T03:21:21;11.48;;;6.63;;
74158;SDS011;62511;47.970;11.774;2023-04-21T03:23:47;10.88;;;5.68;;
74158;SDS011;62511;47.970;11.774;2023-04-21T03:26:13;9.27;;;5.43;;
74158;SDS011;62511;47.970;11.774;2023-04-21T03:28:40;10.70;;;6.05;;
74158;SDS011;62511;47.970;11.774;2023-04-21T03:31:06;14.27;;;6.55;;
74158;SDS011;62511;47.970;11.774;2023-04-21T03:33:32;12.48;;;6.10;;
74158;SDS011;62511;47.970;11.774;2023-04-21T03:35:58;11.90;;;6.35;;
74158;SDS011;62511;47.970;11.774;2023-04-21T03:38:27;12.02;;;6.20;;
74158;SDS011;62511;47.970;11.774;2023-04-21T03:40:53;11.80;;;6.63;;
74158;SDS011;62511;47.970;11.774;2023-04-21T03:43:19;14.23;;;6.80;;
74158;SDS011;62511;47.970;11.774;2023-04-21T03:45:45;11.93;;;5.97;;
74158;SDS011;62511;47.970;11.774;2023-04-21T03:48:11;11.35;;;6.03;;
74158;SDS011;62511;47.970;11.774;2023-04-21T03:50:37;8.88;;;6.13;;
74158;SDS011;62511;47.970;11.774;2023-04-21T03:53:03;11.35;;;5.00;;
74158;SDS011;62511;47.970;11.774;2023-04-21T03:55:29;10.80;;;5.78;;
74158;SDS011;62511;47.970;11.774;2023-04-21T03:57:55;11.60;;;5.40;;
74158;SDS011;62511;47.970;11.774;2023-04-21T04:00:21;11.27;;;6.18;;
74158;SDS011;62511;47.970;11.774;2023-04-21T04:02:47;12.02;;;6.50;;
74158;SDS011;62511;47.970;11.774;2023-04-21T04:05:14;11.45;;;6.43;;
74158;SDS011;62511;47.970;11.774;2023-04-21T04:07:40;11.88;;;5.32;;
74158;SDS011;62511;47.970;11.774;2023-04-21T04:10:06;11.85;;;5.88;;
74158;SDS011;62511;47.970;11.774;2023-04-21T04:12:32;13.00;;;6.63;;
74158;SDS011;62511;47.970;11.774;2023-04-21T04:14:58;10.98;;;5.60;;
74158;SDS011;62511;47.970;11.774;2023-04-21T04:17:24;13.23;;;7.28;;
74158;SDS011;62511;47.970;11.774;2023-04-21T04:19:50;13.45;;;7.35;;
74158;SDS011;62511;47.970;11.774;2023-04-21T04:22:16;12.90;;;6.18;;
74158;SDS011;62511;47.970;11.774;2023-04-21T04:24:42;16.60;;;7.43;;
74158;SDS011;62511;47.970;11.774;2023-04-21T04:27:09;14.50;;;7.60;;
74158;SDS011;62511;47.970;11.774;2023-04-21T04:29:38;12.35;;;6.05;;
74158;SDS011;62511;47.970;11.774;2023-04-21T04:32:05;17.40;;;8.48;;
74158;SDS011;62511;47.970;11.774;2023-04-21T04:34:33;15.35;;;7.95;;
74158;SDS011;62511;47.970;11.774;2023-04-21T04:37:01;14.95;;;7.75;;
74158;SDS011;62511;47.970;11.774;2023-04-21T04:39:28;15.60;;;7.70;;
74158;SDS011;62511;47.970;11.774;2023-04-21T04:41:54;17.50;;;8.68;;
74158;SDS011;62511;47.970;11.774;2023-04-21T04:44:20;16.45;;;8.30;;
74158;SDS011;62511;47.970;11.774;2023-04-21T04:46:48;18.65;;;8.18;;
74158;SDS011;62511;47.970;11.774;2023-04-21T04:49:14;15.48;;;7.28;;
74158;SDS011;62511;47.970;11.774;2023-04-21T04:51:41;15.15;;;7.43;;
74158;SDS011;62511;47.970;11.774;2023-04-21T04:54:07;18.05;;;7.32;;
74158;SDS011;62511;47.970;11.774;2023-04-21T04:56:33;14.45;;;6.90;;
74158;SDS011;62511;47.970;11.774;2023-04-21T04:58:59;15.57;;;7.20;;
74158;SDS011;62511;47.970;11.774;2023-04-21T05:01:25;14.60;;;7.07;;
74158;SDS011;62511;47.970;11.774;2023-04-21T05:03:54;13.40;;;7.40;;
74158;SDS011;62511;47.970;11.774;2023-04-21T05:06:20;16.48;;;6.22;;
74158;SDS011;62511;47.970;11.774;2023-04-21T05:08:46;11.32;;;6.10;;
74158;SDS011;62511;47.970;11.774;2023-04-21T05:11:12;15.20;;;6.60;;
74158;SDS011;62511;47.970;11.774;2023-04-21T05:13:38;11.77;;;6.35;;
74158;SDS011;62511;47.970;11.774;2023-04-21T05:16:04;10.70;;;5.72;;
74158;SDS011;62511;47.970;11.774;2023-04-21T05:18:31;11.15;;;6.05;;
74158;SDS011;62511;47.970;11.774;2023-04-21T05:20:57;13.23;;;6.72;;
74158;SDS011;62511;47.970;11.774;2023-04-21T05:23:24;13.95;;;6.70;;
74158;SDS011;62511;47.970;11.774;2023-04-21T05:25:50;12.52;;;6.13;;
74158;SDS011;62511;47.970;11.774;2023-04-21T05:28:16;12.73;;;7.57;;
74158;SDS011;62511;47.970;11.774;2023-04-21T05:30:42;12.45;;;6.35;;
74158;SDS011;62511;47.970;11.774;2023-04-21T05:33:09;14.48;;;7.25;;
74158;SDS011;62511;47.970;11.774;2023-04-21T05:35:35;9.95;;;5.72;;
74158;SDS011;62511;47.970;11.774;2023-04-21T05:38:02;15.15;;;7.07;;
74158;SDS011;62511;47.970;11.774;2023-04-21T05:42:55;11.90;;;6.50;;
74158;SDS011;62511;47.970;11.774;2023-04-21T05:45:21;12.60;;;6.22;;
74158;SDS011;62511;47.970;11.774;2023-04-21T05:47:47;11.68;;;6.32;;
74158;SDS011;62511;47.970;11.774;2023-04-21T05:50:13;13.07;;;7.50;;
74158;SDS011;62511;47.970;11.774;2023-04-21T05:52:40;15.05;;;7.20;;
74158;SDS011;62511;47.970;11.774;2023-04-21T05:55:06;11.80;;;6.40;;
74158;SDS011;62511;47.970;11.774;2023-04-21T05:57:32;11.88;;;6.80;;
74158;SDS011;62511;47.970;11.774;2023-04-21T05:59:58;13.13;;;7.72;;
74158;SDS011;62511;47.970;11.774;2023-04-21T06:02:24;13.82;;;7.70;;
74158;SDS011;62511;47.970;11.774;2023-04-21T06:04:51;14.13;;;7.70;;
74158;SDS011;62511;47.970;11.774;2023-04-21T06:07:17;13.40;;;7.18;;
74158;SDS011;62511;47.970;11.774;2023-04-21T06:09:43;14.35;;;7.50;;
74158;SDS011;62511;47.970;11.774;2023-04-21T06:12:09;14.05;;;7.63;;
74158;SDS011;62511;47.970;11.774;2023-04-21T06:14:35;13.82;;;7.65;;
74158;SDS011;62511;47.970;11.774;2023-04-21T06:17:03;13.07;;;7.10;;
74158;SDS011;62511;47.970;11.774;2023-04-21T06:19:29;13.43;;;7.80;;
74158;SDS011;62511;47.970;11.774;2023-04-21T06:21:55;13.85;;;7.68;;
74158;SDS011;62511;47.970;11.774;2023-04-21T06:24:21;11.10;;;6.05;;
74158;SDS011;62511;47.970;11.774;2023-04-21T06:26:49;11.05;;;6.55;;
74158;SDS011;62511;47.970;11.774;2023-04-21T06:29:16;14.27;;;7.00;;
74158;SDS011;62511;47.970;11.774;2023-04-21T06:31:43;12.75;;;7.20;;
74158;SDS011;62511;47.970;11.774;2023-04-21T06:34:09;13.35;;;7.07;;
74158;SDS011;62511;47.970;11.774;2023-04-21T06:36:35;11.15;;;6.30;;
74158;SDS011;62511;47.970;11.774;2023-04-21T06:39:01;11.23;;;6.20;;
74158;SDS011;62511;47.970;11.774;2023-04-21T06:41:28;10.70;;;6.22;;
74158;SDS011;62511;47.970;11.774;2023-04-21T06:43:54;13.98;;;6.88;;
74158;SDS011;62511;47.970;11.774;2023-04-21T06:46:22;8.93;;;5.60;;
74158;SDS011;62511;47.970;11.774;2023-04-21T06:51:14;8.15;;;5.05;;
74158;SDS011;62511;47.970;11.774;2023-04-21T06:53:41;9.30;;;5.10;;
74158;SDS011;62511;47.970;11.774;2023-04-21T06:56:07;13.25;;;6.95;;
74158;SDS011;62511;47.970;11.774;2023-04-21T06:58:33;11.70;;;6.47;;
74158;SDS011;62511;47.970;11.774;2023-04-21T07:00:59;11.57;;;5.75;;
74158;SDS011;62511;47.970;11.774;2023-04-21T07:03:26;9.25;;;5.63;;
74158;SDS011;62511;47.970;11.774;2023-04-21T07:05:52;9.85;;;5.68;;
74158;SDS011;62511;47.970;11.774;2023-04-21T07:08:18;9.75;;;5.13;;
74158;SDS011;62511;47.970;11.774;2023-04-21T07:10:44;7.95;;;4.68;;
74158;SDS011;62511;47.970;11.774;2023-04-21T07:13:10;8.63;;;4.50;;
74158;SDS011;62511;47.970;11.774;2023-04-21T07:15:36;8.48;;;4.53;;
74158;SDS011;62511;47.970;11.774;2023-04-21T07:18:02;6.95;;;4.30;;
74158;SDS011;62511;47.970;11.774;2023-04-21T07:20:29;7.57;;;4.53;;
74158;SDS011;62511;47.970;11.774;2023-04-21T07:22:55;5.60;;;3.67;;
74158;SDS011;62511;47.970;11.774;2023-04-21T07:25:21;7.00;;;4.07;;
74158;SDS011;62511;47.970;11.774;2023-04-21T07:27:47;8.90;;;4.78;;
74158;SDS011;62511;47.970;11.774;2023-04-21T07:30:13;6.95;;;4.20;;
74158;SDS011;62511;47.970;11.774;2023-04-21T07:32:39;9.63;;;4.80;;
74158;SDS011;62511;47.970;11.774;2023-04-21T07:35:05;7.00;;;4.35;;
74158;SDS011;62511;47.970;11.774;2023-04-21T07:37:32;7.15;;;4.22;;
74158;SDS011;62511;47.970;11.774;2023-04-21T07:39:58;7.43;;;4.57;;
74158;SDS011;62511;47.970;11.774;2023-04-21T07:42:24;7.75;;;4.68;;
74158;SDS011;62511;47.970;11.774;2023-04-21T07:44:51;9.32;;;5.15;;
74158;SDS011;62511;47.970;11.774;2023-04-21T07:47:17;7.70;;;4.65;;
74158;SDS011;62511;47.970;11.774;2023-04-21T07:49:43;8.82;;;4.97;;
74158;SDS011;62511;47.970;11.774;2023-04-21T07:52:09;9.48;;;5.05;;
74158;SDS011;62511;47.970;11.774;2023-04-21T07:54:35;10.15;;;5.43;;
74158;SDS011;62511;47.970;11.774;2023-04-21T07:57:01;7.78;;;4.80;;
74158;SDS011;62511;47.970;11.774;2023-04-21T07:59:29;8.20;;;4.18;;
74158;SDS011;62511;47.970;11.774;2023-04-21T08:01:55;7.90;;;4.55;;
74158;SDS011;62511;47.970;11.774;2023-04-21T08:04:21;8.75;;;4.85;;
74158;SDS011;62511;47.970;11.774;2023-04-21T08:06:47;9.23;;;5.45;;
74158;SDS011;62511;47.970;11.774;2023-04-21T08:09:13;9.50;;;5.22;;
74158;SDS011;62511;47.970;11.774;2023-04-21T08:11:39;8.63;;;5.15;;
74158;SDS011;62511;47.970;11.774;2023-04-21T08:14:05;9.75;;;4.82;;
74158;SDS011;62511;47.970;11.774;2023-04-21T08:16:33;7.45;;;4.88;;
74158;SDS011;62511;47.970;11.774;2023-04-21T08:19:00;8.07;;;4.15;;
74158;SDS011;62511;47.970;11.774;2023-04-21T08:21:26;10.05;;;5.00;;
74158;SDS011;62511;47.970;11.774;2023-04-21T08:23:52;10.43;;;5.15;;
74158;SDS011;62511;47.970;11.774;2023-04-21T08:26:21;8.57;;;5.30;;
74158;SDS011;62511;47.970;11.774;2023-04-21T08:28:47;9.25;;;5.45;;
74158;SDS011;62511;47.970;11.774;2023-04-21T08:31:15;7.88;;;4.68;;
74158;SDS011;62511;47.970;11.774;2023-04-21T08:33:41;9.30;;;4.65;;
74158;SDS011;62511;47.970;11.774;2023-04-21T08:36:07;8.40;;;5.13;;
74158;SDS011;62511;47.970;11.774;2023-04-21T08:38:34;12.10;;;6.65;;
74158;SDS011;62511;47.970;11.774;2023-04-21T08:41:00;11.05;;;5.85;;
74158;SDS011;62511;47.970;11.774;2023-04-21T08:43:28;9.63;;;5.35;;
74158;SDS011;62511;47.970;11.774;2023-04-21T08:45:54;7.60;;;4.40;;
74158;SDS011;62511;47.970;11.774;2023-04-21T08:48:21;8.18;;;5.50;;
74158;SDS011;62511;47.970;11.774;2023-04-21T08:53:14;8.40;;;4.80;;
74158;SDS011;62511;47.970;11.774;2023-04-21T08:55:40;9.52;;;5.18;;
74158;SDS011;62511;47.970;11.774;2023-04-21T08:58:08;9.88;;;5.13;;
74158;SDS011;62511;47.970;11.774;2023-04-21T09:00:34;9.23;;;5.40;;
74158;SDS011;62511;47.970;11.774;2023-04-21T09:03:01;10.48;;;5.10;;
74158;SDS011;62511;47.970;11.774;2023-04-21T09:05:29;8.15;;;4.38;;
74158;SDS011;62511;47.970;11.774;2023-04-21T09:08:12;8.30;;;4.50;;
74158;SDS011;62511;47.970;11.774;2023-04-21T09:10:44;7.45;;;4.43;;
74158;SDS011;62511;47.970;11.774;2023-04-21T09:15:41;8.00;;;4.90;;
74158;SDS011;62511;47.970;11.774;2023-04-21T09:18:14;6.00;;;3.95;;
74158;SDS011;62511;47.970;11.774;2023-04-21T09:20:41;7.38;;;4.07;;
74158;SDS011;62511;47.970;11.774;2023-04-21T09:23:08;7.22;;;4.20;;
74158;SDS011;62511;47.970;11.774;2023-04-21T09:25:36;7.40;;;4.55;;
74158;SDS011;62511;47.970;11.774;2023-04-21T09:28:04;7.75;;;3.80;;
74158;SDS011;62511;47.970;11.774;2023-04-21T09:30:33;7.15;;;4.18;;
74158;SDS011;62511;47.970;11.774;2023-04-21T09:33:00;7.15;;;3.97;;
74158;SDS011;62511;47.970;11.774;2023-04-21T09:35:31;8.35;;;4.20;;
74158;SDS011;62511;47.970;11.774;2023-04-21T09:37:58;6.45;;;4.28;;
74158;SDS011;62511;47.970;11.774;2023-04-21T09:40:27;6.53;;;3.60;;
74158;SDS011;62511;47.970;11.774;2023-04-21T09:42:53;5.45;;;3.30;;
74158;SDS011;62511;47.970;11.774;2023-04-21T09:45:19;6.38;;;3.30;;
74158;SDS011;62511;47.970;11.774;2023-04-21T09:47:50;5.90;;;3.53;;
74158;SDS011;62511;47.970;11.774;2023-04-21T09:50:19;4.55;;;3.17;;
74158;SDS011;62511;47.970;11.774;2023-04-21T09:52:46;5.93;;;3.85;;
74158;SDS011;62511;47.970;11.774;2023-04-21T09:55:14;6.10;;;3.92;;
74158;SDS011;62511;47.970;11.774;2023-04-21T09:57:40;5.60;;;2.92;;
74158;SDS011;62511;47.970;11.774;2023-04-21T10:00:09;5.50;;;3.08;;
74158;SDS011;62511;47.970;11.774;2023-04-21T10:02:37;5.90;;;3.20;;
74158;SDS011;62511;47.970;11.774;2023-04-21T10:05:07;5.88;;;3.42;;
74158;SDS011;62511;47.970;11.774;2023-04-21T10:07:34;5.60;;;3.55;;
74158;SDS011;62511;47.970;11.774;2023-04-21T10:10:00;6.28;;;3.58;;
74158;SDS011;62511;47.970;11.774;2023-04-21T10:12:27;5.60;;;3.67;;
74158;SDS011;62511;47.970;11.774;2023-04-21T10:14:53;4.35;;;2.95;;
74158;SDS011;62511;47.970;11.774;2023-04-21T10:17:26;6.63;;;4.00;;
74158;SDS011;62511;47.970;11.774;2023-04-21T10:19:52;5.10;;;3.58;;
74158;SDS011;62511;47.970;11.774;2023-04-21T10:22:30;6.70;;;3.92;;
74158;SDS011;62511;47.970;11.774;2023-04-21T10:24:59;9.80;;;4.40;;
74158;SDS011;62511;47.970;11.774;2023-04-21T10:27:34;7.22;;;4.00;;
74158;SDS011;62511;47.970;11.774;2023-04-21T10:32:43;6.47;;;4.30;;
74158;SDS011;62511;47.970;11.774;2023-04-21T10:35:14;9.25;;;4.07;;
74158;SDS011;62511;47.970;11.774;2023-04-21T10:37:47;7.25;;;3.95;;
74158;SDS011;62511;47.970;11.774;2023-04-21T10:42:54;9.95;;;4.10;;
74158;SDS011;62511;47.970;11.774;2023-04-21T10:45:24;7.57;;;4.15;;
74158;SDS011;62511;47.970;11.774;2023-04-21T10:47:51;7.55;;;4.35;;
74158;SDS011;62511;47.970;11.774;2023-04-21T10:50:21;7.45;;;4.22;;
74158;SDS011;62511;47.970;11.774;2023-04-21T10:55:20;8.93;;;4.40;;
74158;SDS011;62511;47.970;11.774;2023-04-21T10:57:47;8.07;;;4.25;;
74158;SDS011;62511;47.970;11.774;2023-04-21T11:00:14;12.55;;;4.03;;
74158;SDS011;62511;47.970;11.774;2023-04-21T11:02:41;6.05;;;4.13;;
74158;SDS011;62511;47.970;11.774;2023-04-21T11:05:08;4.45;;;3.10;;
74158;SDS011;62511;47.970;11.774;2023-04-21T11:07:34;6.50;;;3.95;;
74158;SDS011;62511;47.970;11.774;2023-04-21T11:10:02;7.82;;;4.60;;
74158;SDS011;62511;47.970;11.774;2023-04-21T11:12:30;6.15;;;3.92;;
74158;SDS011;62511;47.970;11.774;2023-04-21T11:14:56;11.73;;;4.97;;
74158;SDS011;62511;47.970;11.774;2023-04-21T11:17:24;7.95;;;4.55;;
74158;SDS011;62511;47.970;11.774;2023-04-21T11:19:52;9.75;;;4.57;;
74158;SDS011;62511;47.970;11.774;2023-04-21T11:22:22;5.30;;;4.03;;
74158;SDS011;62511;47.970;11.774;2023-04-21T11:24:52;6.38;;;4.35;;
74158;SDS011;62511;47.970;11.774;2023-04-21T11:27:18;8.02;;;4.82;;
74158;SDS011;62511;47.970;11.774;2023-04-21T11:29:46;9.90;;;4.85;;
74158;SDS011;62511;47.970;11.774;2023-04-21T11:32:13;6.50;;;3.85;;
74158;SDS011;62511;47.970;11.774;2023-04-21T11:34:40;5.35;;;3.47;;
74158;SDS011;62511;47.970;11.774;2023-04-21T11:37:09;6.88;;;4.03;;
74158;SDS011;62511;47.970;11.774;2023-04-21T11:39:39;8.02;;;4.07;;
74158;SDS011;62511;47.970;11.774;2023-04-21T11:47:19;9.63;;;5.20;;
74158;SDS011;62511;47.970;11.774;2023-04-21T11:49:47;8.43;;;5.00;;
74158;SDS011;62511;47.970;11.774;2023-04-21T11:52:23;8.43;;;5.00;;
74158;SDS011;62511;47.970;11.774;2023-04-21T11:54:59;10.07;;;4.50;;
74158;SDS011;62511;47.970;11.774;2023-04-21T11:57:26;6.18;;;4.15;;
74158;SDS011;62511;47.970;11.774;2023-04-21T11:59:52;5.75;;;3.63;;
74158;SDS011;62511;47.970;11.774;2023-04-21T12:02:23;6.30;;;3.92;;
74158;SDS011;62511;47.970;11.774;2023-04-21T12:04:56;6.50;;;3.83;;
74158;SDS011;62511;47.970;11.774;2023-04-21T12:07:22;7.75;;;3.85;;
74158;SDS011;62511;47.970;11.774;2023-04-21T12:09:51;7.38;;;3.90;;
74158;SDS011;62511;47.970;11.774;2023-04-21T12:12:17;5.22;;;3.20;;
74158;SDS011;62511;47.970;11.774;2023-04-21T12:14:44;6.35;;;2.97;;
74158;SDS011;62511;47.970;11.774;2023-04-21T12:17:10;3.50;;;2.60;;
74158;SDS011;62511;47.970;11.774;2023-04-21T12:19:37;4.72;;;2.72;;
74158;SDS011;62511;47.970;11.774;2023-04-21T12:22:10;5.03;;;2.90;;
74158;SDS011;62511;47.970;11.774;2023-04-21T12:24:42;5.00;;;2.75;;
74158;SDS011;62511;47.970;11.774;2023-04-21T12:27:09;7.38;;;3.03;;
74158;SDS011;62511;47.970;11.774;2023-04-21T12:29:35;4.82;;;2.70;;
74158;SDS011;62511;47.970;11.774;2023-04-21T12:32:05;4.82;;;2.80;;
74158;SDS011;62511;47.970;11.774;2023-04-21T12:34:31;3.58;;;2.63;;
74158;SDS011;62511;47.970;11.774;2023-04-21T12:36:57;4.60;;;2.88;;
74158;SDS011;62511;47.970;11.774;2023-04-21T12:39:23;3.53;;;2.50;;
74158;SDS011;62511;47.970;11.774;2023-04-21T12:41:50;4.40;;;2.70;;
74158;SDS011;62511;47.970;11.774;2023-04-21T12:44:16;5.70;;;3.33;;
74158;SDS011;62511;47.970;11.774;2023-04-21T12:46:42;4.32;;;3.00;;
74158;SDS011;62511;47.970;11.774;2023-04-21T12:49:09;4.75;;;2.17;;
74158;SDS011;62511;47.970;11.774;2023-04-21T12:51:35;5.13;;;2.58;;
74158;SDS011;62511;47.970;11.774;2023-04-21T12:54:03;4.05;;;2.90;;
74158;SDS011;62511;47.970;11.774;2023-04-21T12:56:29;3.33;;;2.35;;
74158;SDS011;62511;47.970;11.774;2023-04-21T12:58:57;3.58;;;2.20;;
74158;SDS011;62511;47.970;11.774;2023-04-21T13:01:26;4.70;;;2.20;;
74158;SDS011;62511;47.970;11.774;2023-04-21T13:03:53;2.88;;;1.88;;
74158;SDS011;62511;47.970;11.774;2023-04-21T13:06:20;3.63;;;1.63;;
74158;SDS011;62511;47.970;11.774;2023-04-21T13:08:47;2.83;;;1.65;;
74158;SDS011;62511;47.970;11.774;2023-04-21T13:11:13;3.13;;;2.10;;
74158;SDS011;62511;47.970;11.774;2023-04-21T13:13:41;2.33;;;2.13;;
74158;SDS011;62511;47.970;11.774;2023-04-21T13:16:09;3.55;;;2.10;;
74158;SDS011;62511;47.970;11.774;2023-04-21T13:18:36;3.40;;;2.00;;
74158;SDS011;62511;47.970;11.774;2023-04-21T13:21:03;2.63;;;1.90;;
74158;SDS011;62511;47.970;11.774;2023-04-21T13:23:29;3.78;;;1.92;;
74158;SDS011;62511;47.970;11.774;2023-04-21T13:26:00;2.78;;;2.03;;
74158;SDS011;62511;47.970;11.774;2023-04-21T13:28:36;3.83;;;1.90;;
74158;SDS011;62511;47.970;11.774;2023-04-21T13:31:06;3.53;;;2.00;;
74158;SDS011;62511;47.970;11.774;2023-04-21T13:33:35;2.15;;;1.67;;
74158;SDS011;62511;47.970;11.774;2023-04-21T13:36:06;3.67;;;1.70;;
74158;SDS011;62511;47.970;11.774;2023-04-21T13:38:55;2.65;;;1.70;;
74158;SDS011;62511;47.970;11.774;2023-04-21T13:41:21;2.53;;;1.73;;
74158;SDS011;62511;47.970;11.774;2023-04-21T13:43:52;1.90;;;1.38;;
74158;SDS011;62511;47.970;11.774;2023-04-21T13:46:19;1.83;;;1.50;;
74158;SDS011;62511;47.970;11.774;2023-04-21T13:48:54;1.42;;;1.25;;
74158;SDS011;62511;47.970;11.774;2023-04-21T13:51:21;1.70;;;1.30;;
74158;SDS011;62511;47.970;11.774;2023-04-21T13:53:47;3.22;;;1.30;;
74158;SDS011;62511;47.970;11.774;2023-04-21T13:56:25;1.35;;;1.25;;
74158;SDS011;62511;47.970;11.774;2023-04-21T13:58:51;1.73;;;1.20;;
74158;SDS011;62511;47.970;11.774;2023-04-21T14:01:19;2.13;;;1.42;;
74158;SDS011;62511;47.970;11.774;2023-04-21T14:03:47;2.20;;;1.30;;
74158;SDS011;62511;47.970;11.774;2023-04-21T14:06:14;2.20;;;1.20;;
74158;SDS011;62511;47.970;11.774;2023-04-21T14:09:01;1.05;;;0.88;;
74158;SDS011;62511;47.970;11.774;2023-04-21T14:11:28;1.80;;;1.30;;
74158;SDS011;62511;47.970;11.774;2023-04-21T14:13:56;2.22;;;1.50;;
74158;SDS011;62511;47.970;11.774;2023-04-21T14:16:24;1.83;;;1.25;;
74158;SDS011;62511;47.970;11.774;2023-04-21T14:18:52;4.70;;;1.95;;
74158;SDS011;62511;47.970;11.774;2023-04-21T14:21:26;2.10;;;1.50;;
74158;SDS011;62511;47.970;11.774;2023-04-21T14:23:52;1.70;;;1.33;;
74158;SDS011;62511;47.970;11.774;2023-04-21T14:26:18;1.25;;;1.00;;
74158;SDS011;62511;47.970;11.774;2023-04-21T14:28:46;1.52;;;1.00;;
74158;SDS011;62511;47.970;11.774;2023-04-21T14:31:24;1.45;;;1.13;;
74158;SDS011;62511;47.970;11.774;2023-04-21T14:33:58;1.35;;;1.23;;
74158;SDS011;62511;47.970;11.774;2023-04-21T14:36:24;1.20;;;1.10;;
74158;SDS011;62511;47.970;11.774;2023-04-21T14:38:51;3.53;;;1.23;;
74158;SDS011;62511;47.970;11.774;2023-04-21T14:41:18;1.25;;;0.93;;
74158;SDS011;62511;47.970;11.774;2023-04-21T14:43:44;1.48;;;1.15;;
74158;SDS011;62511;47.970;11.774;2023-04-21T14:46:11;2.60;;;1.13;;
74158;SDS011;62511;47.970;11.774;2023-04-21T14:48:39;1.90;;;1.25;;
74158;SDS011;62511;47.970;11.774;2023-04-21T14:51:08;2.38;;;1.17;;
74158;SDS011;62511;47.970;11.774;2023-04-21T14:53:44;1.92;;;1.35;;